createdAt,value
2022-10-13T04:01:16.867Z,4.80
2022-10-13T04:03:43.702Z,4.88
2022-10-13T04:06:10.418Z,5.32
2022-10-13T04:08:37.026Z,4.93
2022-10-13T04:11:06.827Z,5.30
2022-10-13T04:13:34.417Z,4.90
2022-10-13T04:16:06.462Z,5.47
2022-10-13T04:18:33.787Z,5.20
2022-10-13T04:21:00.910Z,4.90
2022-10-13T04:23:27.379Z,5.50
2022-10-13T04:25:53.939Z,5.40
2022-10-13T04:28:20.464Z,6.00
2022-10-13T04:30:49.381Z,5.90
2022-10-13T04:33:16.282Z,5.82
2022-10-13T04:35:42.918Z,5.80
2022-10-13T04:38:09.370Z,5.72
2022-10-13T04:40:36.079Z,5.45
2022-10-13T04:43:02.552Z,5.53
2022-10-13T04:45:29.947Z,5.80
2022-10-13T04:47:56.425Z,5.65
2022-10-13T04:50:22.965Z,5.78
2022-10-13T04:52:49.456Z,6.72
2022-10-13T04:55:16.129Z,5.63
2022-10-13T04:57:42.623Z,5.55
2022-10-13T05:00:09.781Z,5.72
2022-10-13T05:02:36.799Z,6.78
2022-10-13T05:05:03.918Z,5.90
2022-10-13T05:07:31.934Z,5.50
2022-10-13T05:09:58.373Z,6.45
2022-10-13T05:12:25.056Z,5.80
2022-10-13T05:14:51.589Z,6.38
2022-10-13T05:17:18.270Z,5.80
2022-10-13T05:19:44.735Z,6.65
2022-10-13T05:22:11.247Z,6.38
2022-10-13T05:24:37.702Z,6.40
2022-10-13T05:27:10.040Z,6.22
2022-10-13T05:29:37.345Z,6.50
2022-10-13T05:32:04.430Z,7.07
2022-10-13T05:34:31.242Z,6.88
2022-10-13T05:36:57.695Z,6.68
2022-10-13T05:39:24.390Z,6.10
2022-10-13T05:41:50.867Z,7.00
2022-10-13T05:44:17.480Z,6.50
2022-10-13T05:46:44.406Z,7.20
2022-10-13T05:49:11.169Z,6.38
2022-10-13T05:51:45.874Z,6.88
2022-10-13T05:54:26.028Z,6.75
2022-10-13T05:57:11.169Z,7.50
2022-10-13T05:59:42.011Z,6.50
2022-10-13T06:02:12.267Z,6.95
2022-10-13T06:04:43.313Z,6.80
2022-10-13T06:07:10.216Z,6.45
2022-10-13T06:09:38.096Z,6.68
2022-10-13T06:12:06.200Z,6.72
2022-10-13T06:14:33.011Z,6.70
2022-10-13T06:16:59.502Z,6.60
2022-10-13T06:19:26.041Z,6.72
2022-10-13T06:21:52.568Z,6.68
2022-10-13T06:24:19.136Z,6.38
2022-10-13T06:26:46.139Z,6.13
2022-10-13T06:29:12.631Z,6.30
2022-10-13T06:31:39.168Z,5.78
2022-10-13T06:34:05.663Z,6.10
2022-10-13T06:36:32.096Z,6.30
2022-10-13T06:38:58.803Z,5.47
2022-10-13T06:41:25.394Z,5.75
2022-10-13T06:43:51.895Z,5.95
2022-10-13T06:46:18.413Z,5.07
2022-10-13T06:48:44.836Z,5.55
2022-10-13T06:51:12.257Z,5.68
2022-10-13T06:53:38.761Z,5.45
2022-10-13T06:56:06.962Z,5.75
2022-10-13T06:58:35.202Z,5.63
2022-10-13T07:01:01.735Z,5.55
2022-10-13T07:03:28.582Z,5.85
2022-10-13T07:05:55.198Z,5.40
2022-10-13T07:08:21.688Z,4.93
2022-10-13T07:10:48.939Z,4.72
2022-10-13T07:13:15.516Z,5.03
2022-10-13T07:15:42.119Z,4.63
2022-10-13T07:18:09.046Z,5.00
2022-10-13T07:20:35.649Z,4.93
2022-10-13T07:23:02.646Z,4.53
2022-10-13T07:25:29.299Z,5.45
2022-10-13T07:27:55.870Z,5.22
2022-10-13T07:30:22.488Z,4.78
2022-10-13T07:32:49.037Z,4.25
2022-10-13T07:35:15.812Z,4.53
2022-10-13T07:37:42.331Z,4.78
2022-10-13T07:40:09.564Z,4.90
2022-10-13T07:42:36.153Z,4.97
2022-10-13T07:45:03.073Z,5.03
2022-10-13T07:47:29.740Z,5.45
2022-10-13T07:49:56.191Z,5.13
2022-10-13T07:52:23.225Z,4.95
2022-10-13T07:54:50.927Z,5.15
2022-10-13T07:57:17.625Z,5.25
2022-10-13T07:59:44.224Z,4.72
2022-10-13T08:02:10.808Z,5.65
2022-10-13T08:04:37.365Z,5.28
2022-10-13T08:07:05.907Z,4.70
2022-10-13T08:09:33.063Z,5.30
2022-10-13T08:12:00.994Z,5.45
2022-10-13T08:14:29.012Z,4.93
2022-10-13T08:16:56.524Z,5.88
2022-10-13T08:19:23.834Z,4.80
2022-10-13T08:21:58.173Z,5.28
2022-10-13T08:24:26.108Z,5.97
2022-10-13T08:26:52.625Z,5.88
2022-10-13T08:29:23.750Z,5.20
2022-10-13T08:31:53.099Z,6.38
2022-10-13T08:34:20.760Z,5.90
2022-10-13T08:36:47.422Z,6.15
2022-10-13T08:39:14.264Z,5.95
2022-10-13T08:41:46.567Z,5.88
2022-10-13T08:45:02.719Z,7.15
2022-10-13T08:47:28.118Z,6.63
2022-10-13T08:50:01.329Z,6.30
2022-10-13T08:52:42.156Z,7.25
2022-10-13T08:55:24.784Z,7.20
2022-10-13T08:57:51.632Z,6.95
2022-10-13T09:00:18.877Z,8.23
2022-10-13T09:02:45.768Z,6.88
2022-10-13T09:05:43.851Z,7.20
2022-10-13T09:08:19.307Z,6.13
2022-10-13T09:13:13.036Z,6.55
2022-10-13T09:15:47.291Z,6.47
2022-10-13T09:18:14.324Z,6.55
2022-10-13T09:20:41.500Z,6.50
2022-10-13T09:23:28.210Z,6.90
2022-10-13T09:25:56.047Z,6.30
2022-10-13T09:28:25.816Z,6.70
2022-10-13T09:31:23.575Z,7.30
2022-10-13T09:34:01.859Z,6.45
2022-10-13T09:36:28.941Z,6.80
2022-10-13T09:39:16.353Z,7.57
2022-10-13T09:41:43.752Z,7.30
2022-10-13T09:44:17.563Z,8.00
2022-10-13T09:46:59.298Z,6.90
2022-10-13T09:49:40.038Z,6.70
2022-10-13T09:52:19.428Z,7.18
2022-10-13T09:54:56.454Z,7.07
2022-10-13T09:57:42.475Z,6.88
2022-10-13T10:00:13.334Z,6.63
2022-10-13T10:02:45.620Z,7.05
2022-10-13T10:05:35.956Z,6.70
2022-10-13T10:08:18.491Z,6.63
2022-10-13T10:10:45.416Z,6.95
2022-10-13T10:13:13.120Z,6.70
2022-10-13T10:15:46.644Z,7.07
2022-10-13T10:18:24.220Z,7.50
2022-10-13T10:20:55.201Z,6.63
2022-10-13T10:23:43.177Z,7.10
2022-10-13T10:26:32.457Z,6.40
2022-10-13T10:29:13.520Z,6.82
2022-10-13T10:31:52.202Z,6.63
2022-10-13T10:34:33.441Z,6.38
2022-10-13T10:38:01.657Z,6.68
2022-10-13T10:40:37.227Z,6.50
2022-10-13T10:43:41.040Z,6.57
2022-10-13T10:46:16.656Z,6.03
2022-10-13T10:48:45.172Z,6.30
2022-10-13T10:51:12.850Z,6.38
2022-10-13T10:53:45.032Z,6.15
2022-10-13T10:56:42.661Z,5.88
2022-10-13T10:59:30.327Z,6.18
2022-10-13T11:02:27.781Z,6.20
2022-10-13T11:04:54.567Z,6.05
2022-10-13T11:07:24.067Z,5.80
2022-10-13T11:09:54.057Z,6.30
2022-10-13T11:12:21.099Z,6.15
2022-10-13T11:15:21.165Z,5.60
2022-10-13T11:17:47.787Z,5.88
2022-10-13T11:20:17.930Z,5.47
2022-10-13T11:23:04.349Z,5.95
2022-10-13T11:25:42.760Z,5.43
2022-10-13T11:28:21.691Z,5.78
2022-10-13T11:30:55.211Z,5.72
2022-10-13T11:33:35.615Z,5.47
2022-10-13T11:36:37.499Z,5.85
2022-10-13T11:39:22.640Z,5.80
2022-10-13T11:41:59.640Z,5.30
2022-10-13T11:44:55.676Z,5.60
2022-10-13T11:47:43.687Z,5.60
2022-10-13T11:50:31.998Z,6.07
2022-10-13T11:53:18.849Z,5.55
2022-10-13T11:55:53.992Z,5.38
2022-10-13T11:58:30.136Z,5.30
2022-10-13T12:01:04.443Z,5.25
2022-10-13T12:03:34.265Z,5.72
2022-10-13T12:06:05.748Z,5.53
2022-10-13T12:08:37.899Z,5.75
2022-10-13T12:11:07.655Z,5.57
2022-10-13T12:13:36.114Z,5.80
2022-10-13T12:16:06.403Z,5.38
2022-10-13T12:18:36.262Z,5.25
2022-10-13T12:21:30.644Z,5.80
2022-10-13T12:24:09.453Z,5.50
2022-10-13T12:26:36.088Z,6.00
2022-10-13T12:29:05.359Z,6.05
2022-10-13T12:31:42.076Z,6.55
2022-10-13T12:34:19.329Z,6.15
2022-10-13T12:39:20.189Z,6.65
2022-10-13T12:41:48.770Z,6.82
2022-10-13T12:44:19.976Z,6.40
2022-10-13T12:46:52.355Z,6.30
2022-10-13T12:49:35.774Z,5.78
2022-10-13T12:52:11.855Z,6.28
2022-10-13T12:54:46.169Z,6.57
2022-10-13T12:57:20.561Z,5.63
2022-10-13T12:59:47.694Z,5.82
2022-10-13T13:02:25.896Z,6.25
2022-10-13T13:04:52.609Z,5.93
2022-10-13T13:07:29.140Z,6.63
2022-10-13T13:10:01.661Z,7.32
2022-10-13T13:12:29.518Z,6.85
2022-10-13T13:14:57.180Z,6.97
2022-10-13T13:17:57.930Z,6.10
2022-10-13T13:20:33.263Z,6.10
2022-10-13T13:22:59.854Z,6.10
2022-10-13T13:25:26.688Z,5.72
2022-10-13T13:27:53.286Z,5.68
2022-10-13T13:30:22.278Z,6.40
2022-10-13T13:32:49.196Z,5.53
2022-10-13T13:35:16.055Z,5.07
2022-10-13T13:37:49.946Z,5.28
2022-10-13T13:40:27.762Z,5.00
2022-10-13T13:42:55.303Z,4.78
2022-10-13T13:45:24.834Z,5.10
2022-10-13T13:47:51.691Z,4.88
2022-10-13T13:50:18.200Z,4.65
2022-10-13T13:52:44.704Z,4.70
2022-10-13T13:55:11.290Z,4.97
2022-10-13T13:57:37.771Z,4.85
2022-10-13T14:00:04.898Z,4.50
2022-10-13T14:02:31.531Z,4.55
2022-10-13T14:04:58.568Z,4.95
2022-10-13T14:07:25.253Z,5.03
2022-10-13T14:09:51.745Z,5.30
2022-10-13T14:12:18.655Z,4.90
2022-10-13T14:14:45.455Z,5.10
2022-10-13T14:17:11.967Z,5.53
2022-10-13T14:19:38.421Z,5.40
2022-10-13T14:22:09.315Z,5.25
2022-10-13T14:24:36.185Z,4.80
2022-10-13T14:27:02.793Z,5.22
2022-10-13T14:29:29.460Z,5.25
2022-10-13T14:31:55.939Z,4.93
2022-10-13T14:34:22.514Z,6.60
2022-10-13T14:36:49.057Z,5.20
2022-10-13T14:39:15.626Z,5.50
2022-10-13T14:41:42.206Z,5.25
2022-10-13T14:44:11.785Z,4.97
2022-10-13T14:46:38.373Z,5.00
2022-10-13T14:49:04.872Z,5.05
2022-10-13T14:51:32.239Z,4.80
2022-10-13T14:53:59.150Z,4.32
2022-10-13T14:56:29.614Z,4.90
2022-10-13T14:58:58.400Z,4.43
2022-10-13T15:01:25.097Z,4.40
2022-10-13T15:03:52.102Z,4.28
2022-10-13T15:06:21.544Z,4.82
2022-10-13T15:08:48.764Z,4.07
2022-10-13T15:11:16.737Z,4.30
2022-10-13T15:13:43.590Z,4.57
2022-10-13T15:16:19.311Z,4.70
2022-10-13T15:18:45.869Z,4.57
2022-10-13T15:21:12.413Z,5.15
2022-10-13T15:23:39.409Z,4.30
2022-10-13T15:26:06.790Z,4.75
2022-10-13T15:28:39.283Z,4.43
2022-10-13T15:31:06.238Z,4.57
2022-10-13T15:33:33.104Z,5.10
2022-10-13T15:36:00.275Z,4.70
2022-10-13T15:38:27.249Z,5.07
2022-10-13T15:40:59.144Z,4.75
2022-10-13T15:43:25.619Z,4.97
2022-10-13T15:45:59.905Z,5.20
2022-10-13T15:48:26.960Z,5.13
2022-10-13T15:50:53.653Z,5.05
2022-10-13T15:53:20.389Z,4.30
2022-10-13T15:55:47.962Z,5.43
2022-10-13T15:58:15.359Z,5.05
2022-10-13T16:00:42.089Z,8.68
2022-10-13T16:03:14.085Z,7.75
2022-10-13T16:05:43.413Z,7.80
2022-10-13T16:08:10.006Z,9.35
2022-10-13T16:10:42.623Z,11.07
2022-10-13T16:13:12.462Z,9.57
2022-10-13T16:15:38.964Z,10.38
2022-10-13T16:18:05.617Z,7.85
2022-10-13T16:20:35.110Z,7.10
2022-10-13T16:23:01.993Z,9.05
2022-10-13T16:25:29.555Z,7.78
2022-10-13T16:27:56.286Z,6.85
2022-10-13T16:30:22.800Z,7.20
2022-10-13T16:32:49.403Z,7.85
2022-10-13T16:35:16.065Z,11.38
2022-10-13T16:37:42.557Z,8.45
2022-10-13T16:40:09.514Z,7.15
2022-10-13T16:42:35.987Z,10.57
2022-10-13T16:45:02.531Z,7.18
2022-10-13T16:47:29.009Z,6.45
2022-10-13T16:49:55.625Z,6.40
2022-10-13T16:52:22.100Z,7.25
2022-10-13T16:54:48.596Z,6.53
2022-10-13T16:57:15.081Z,8.57
2022-10-13T16:59:41.599Z,6.80
2022-10-13T17:02:13.431Z,6.72
2022-10-13T17:04:40.031Z,7.22
2022-10-13T17:07:06.670Z,5.60
2022-10-13T17:09:33.214Z,5.50
2022-10-13T17:11:59.951Z,5.63
2022-10-13T17:14:26.448Z,5.07
2022-10-13T17:16:57.443Z,5.43
2022-10-13T17:19:24.358Z,4.22
2022-10-13T17:21:50.863Z,3.85
2022-10-13T17:24:18.024Z,4.38
2022-10-13T17:26:44.609Z,4.78
2022-10-13T17:29:11.130Z,4.45
2022-10-13T17:31:37.829Z,5.15
2022-10-13T17:34:06.063Z,4.63
2022-10-13T17:36:34.131Z,4.85
2022-10-13T17:39:07.256Z,7.05
2022-10-13T17:41:34.380Z,4.50
2022-10-13T17:44:01.750Z,4.05
2022-10-13T17:46:36.826Z,3.70
2022-10-13T17:49:04.973Z,3.20
2022-10-13T17:51:31.645Z,3.83
2022-10-13T17:53:59.679Z,3.47
2022-10-13T17:56:26.468Z,3.65
2022-10-13T17:58:53.026Z,3.78
2022-10-13T18:01:20.955Z,3.78
2022-10-13T18:03:52.810Z,3.60
2022-10-13T18:06:20.325Z,4.18
2022-10-13T18:08:46.824Z,4.63
2022-10-13T18:11:15.983Z,5.10
2022-10-13T18:13:44.541Z,3.75
2022-10-13T18:16:14.967Z,4.65
2022-10-13T18:18:44.340Z,3.95
2022-10-13T18:21:12.955Z,4.97
2022-10-13T18:23:40.258Z,4.50
2022-10-13T18:26:16.816Z,5.00
2022-10-13T18:28:45.189Z,5.10
2022-10-13T18:31:29.813Z,5.00
2022-10-13T18:33:57.852Z,4.70
2022-10-13T18:36:28.292Z,6.35
2022-10-13T18:39:00.649Z,4.80
2022-10-13T18:41:27.181Z,4.90
2022-10-13T18:43:55.268Z,6.32
2022-10-13T18:46:21.751Z,5.00
2022-10-13T18:48:48.325Z,5.45
2022-10-13T18:51:17.166Z,4.78
2022-10-13T18:53:45.677Z,5.47
2022-10-13T18:56:24.452Z,4.93
2022-10-13T18:58:57.017Z,5.10
2022-10-13T19:01:28.608Z,5.07
2022-10-13T19:03:55.777Z,4.93
2022-10-13T19:06:26.808Z,5.90
2022-10-13T19:09:04.179Z,4.78
2022-10-13T19:11:31.886Z,5.13
2022-10-13T19:13:59.688Z,5.10
2022-10-13T19:16:28.885Z,5.50
2022-10-13T19:18:55.821Z,5.55
2022-10-13T19:21:23.012Z,5.43
2022-10-13T19:23:50.406Z,6.05
2022-10-13T19:26:28.865Z,5.20
2022-10-13T19:28:58.401Z,5.50
2022-10-13T19:31:27.637Z,6.07
2022-10-13T19:33:55.220Z,7.30
2022-10-13T19:36:31.699Z,7.07
2022-10-13T19:38:59.304Z,6.43
2022-10-13T19:41:28.746Z,6.88
2022-10-13T19:43:55.615Z,6.18
2022-10-13T19:46:22.485Z,6.18
2022-10-13T19:48:49.238Z,4.95
2022-10-13T19:51:15.849Z,5.72
2022-10-13T19:53:42.407Z,5.50
2022-10-13T19:56:09.105Z,6.20
2022-10-13T19:58:37.135Z,5.20
2022-10-13T20:01:08.355Z,5.20
2022-10-13T20:03:35.138Z,5.05
2022-10-13T20:06:06.385Z,5.32
2022-10-13T20:08:32.883Z,4.45
2022-10-13T20:11:00.679Z,5.22
2022-10-13T20:13:27.161Z,5.07
2022-10-13T20:15:54.188Z,5.47
2022-10-13T20:18:20.652Z,5.53
2022-10-13T20:20:47.101Z,4.85
2022-10-13T20:23:13.632Z,5.82
2022-10-13T20:25:40.055Z,5.68
2022-10-13T20:28:06.852Z,9.63
2022-10-13T20:30:36.810Z,6.93
2022-10-13T20:33:03.628Z,5.82
2022-10-13T20:35:30.082Z,5.80
2022-10-13T20:37:56.627Z,6.15
2022-10-13T20:40:23.220Z,6.00
2022-10-13T20:42:52.802Z,11.32
2022-10-13T20:45:19.371Z,7.70
2022-10-13T20:47:46.902Z,6.70
2022-10-13T20:50:13.664Z,6.10
2022-10-13T20:52:40.139Z,6.10
2022-10-13T20:55:06.784Z,6.15
2022-10-13T20:57:33.413Z,6.10
2022-10-13T20:59:59.949Z,5.72
2022-10-13T21:02:26.390Z,5.80
2022-10-13T21:04:52.991Z,5.32
2022-10-13T21:07:19.769Z,5.35
2022-10-13T21:09:50.211Z,5.28
2022-10-13T21:12:19.431Z,5.22
2022-10-13T21:14:45.981Z,5.22
2022-10-13T21:17:12.436Z,5.53
2022-10-13T21:19:38.943Z,4.55
2022-10-13T21:22:05.403Z,5.55
2022-10-13T21:24:32.052Z,4.75
2022-10-13T21:26:58.525Z,4.70
2022-10-13T21:29:25.159Z,4.82
2022-10-13T21:31:52.116Z,4.63
2022-10-13T21:34:18.614Z,4.68
2022-10-13T21:36:45.519Z,4.85
2022-10-13T21:39:12.214Z,4.82
2022-10-13T21:41:39.097Z,5.22
2022-10-13T21:44:05.620Z,6.20
2022-10-13T21:46:34.087Z,9.02
2022-10-13T21:49:03.522Z,5.60
2022-10-13T21:51:34.648Z,4.57
2022-10-13T21:54:04.162Z,3.88
2022-10-13T21:56:32.173Z,4.20
2022-10-13T21:58:58.878Z,3.97
2022-10-13T22:01:25.793Z,3.95
2022-10-13T22:03:54.794Z,5.50
2022-10-13T22:06:21.289Z,7.53
2022-10-13T22:08:50.494Z,3.70
2022-10-13T22:11:18.266Z,3.65
2022-10-13T22:13:44.977Z,3.63
2022-10-13T22:16:13.451Z,3.20
2022-10-13T22:18:40.253Z,3.20
2022-10-13T22:21:10.392Z,3.03
2022-10-13T22:23:37.065Z,3.40
2022-10-13T22:26:03.990Z,3.10
2022-10-13T22:28:37.064Z,2.85
2022-10-13T22:31:08.740Z,3.15
2022-10-13T22:33:36.795Z,3.10
2022-10-13T22:36:14.765Z,2.95
2022-10-13T22:38:41.307Z,2.75
2022-10-13T22:41:08.697Z,3.22
2022-10-13T22:43:36.031Z,2.63
2022-10-13T22:46:03.665Z,2.97
2022-10-13T22:48:30.624Z,2.67
2022-10-13T22:50:57.159Z,2.33
2022-10-13T22:53:23.644Z,2.42
2022-10-13T22:55:50.233Z,2.10
2022-10-13T22:58:16.701Z,2.55
